Timeline UpdatesTrip UpdatesNews PostsPvt PostsTravel TipsAdmin PostsConv PostsFollowed PostsChat RequestsBlog PostsPNR Posts

Disclaimer
Search
 
 
Tue Jul 29, 2014 16:14:24 ISTHomeTrainsΣChainsAtlasPNRForumGalleryNewsFAQTripsMembersLoginFeedback
No Recent News for this Train
Other Trains in the News **new
Latest...
⇐ Return Journey: Train# 53043

53044/Rajgir - Howrah Passenger (UnReserved)

Nov 04 2013 (6:59AM)
Change Departure Station:
Change Arrival Station:
Post a Train Travel TipPost a Train Travel Tip **new
Post a Comment/Question/Picture/VideoPost a Comment/Question/Picture/Video
Pantry/Catering
✕ NO Pantry Car
✕ NO Catering
RSA - Rake Sharing
Rake/Coach Composition
Loco
HWH WDM 3A/3D
News    PNR    Forum    Time-Table    Availability    Fare Chart    Map    Arr/Dep History    Trips    Gallery    ΣChains    X/O    Timeline    
Travel Time: 23h 30m    72 halts    Distance: 657 km    Avg Speed: 27 km/hr
Type: Passenger
Zone: ER/Eastern
Departs @ 12:40 (Avg 2h 1m late)
Platform# ???
SMTWTFS
Rajgir/RGD 
Arrives @ 12:10 +1 night (Avg 4h 16m late)
Platform# 1
SMTWTFS
Kolkata Howrah Junction/HWH 

72 halts. 157 intermediate Stations between Rajgir and Kolkata Howrah Junction

Show ALL intermediate Stations  Show Old Time-Table

#CodeStation NameX/OArrivesAvgDepartsAvgHaltPFDay#KmSpeedElevZoneAddress
1RGD»Rajgir (3)»  -12:40+2:01--10.03871mECRRajgir, Bihar
2NLDNalanda (2)  12:58+2:0312:59+2:101m--111.34063mECRNational Highway 82, Bihar
3BEHSBihar Sharif (2)  13:18+2:0413:23+2:045m--123.83656mECR06112-222306, Bihar
4WENAWena (2)  13:46+2:1513:47+2:281m--137.8947mECRWena, Bihar
5HRTHarnaut (3)X  14:21+1:1814:28+1:207m--142.95349mECRHarnaut, Bihar
6BKPBakhtiyarpur Junction (5)XO  14:40+1:3515:10+1:2930m--153.66851mECRPatna, Bihar
7ATLAthmal Gola (2)  15:18+2:0715:19+2:071m--162.75052mECRPatna, Bihar
8BARHBarh (3)X  15:30+1:0215:32+1:022m--171.87849mECRBarh, Bihar
9PHKPunarakh  15:40+2:2615:41+2:261m--182.22951mECRPunarakh, Bihar
10MORMorXO  15:58+2:2316:27+2:3929m--190.54846mECRMor, Bihar
11MKAMokama Junction (3)  16:36+2:0116:40+1:594m--197.75648mECRPatna, Bihar
12HTZHathidah Junction (2)X  16:49+2:0916:51+2:092m11106.14650mECRMusahari, Bihar
13RDUMRampur Dumra (3)O  16:56+2:4416:57+2:491m--1109.93746mECRNational Highway 80, Bihar
14BRYABarhiya (3)  17:06+1:4417:08+1:452m--1115.52247mECRBarahiya, Bihar
15MKBMankatha  17:34+2:4017:40+2:396m--1124.93047mECRNational Highway 80, Bihar
16LKRLuckeesarai Junction (2)X  17:51+2:1817:53+2:172m--1130.51252mECRLakhisarai, Bihar
17KIULKiul Junction (5)X  18:00+1:2118:25+1:1725m--1131.93653mECRDist. Lakhisarai, Bihar
18DNREDhanauri  18:35+2:3018:37+2:302m--1137.94948mERNational Highway 80, Bihar
19URENUrenX  18:43+2:3118:45+2:312m--1142.85845mERUren, Bihar
20KJHKajra (2)  18:50+2:1918:51+2:211m--1147.66250mERLakhisarai District, Bihar
21AHAAbhaipurX  18:58+2:2618:59+2:271m--1154.94852mERAbhaipur, Bihar
22MSDNMasudan  19:04+2:4419:05+2:441m--1158.96045mERMasudan, Bihar
23DRHDharhara (2)  19:11+3:0119:12+3:081m--1164.91855mERDharhara, Bihar
24DRTPDasharathpur  19:30+2:5919:31+3:021m--1170.33248mERDharhara, Bihar
25JMPJamalpur Junction (4)  19:43+2:0319:58+2:0315m11176.74259mERJamalpur 06344-243101, Bihar
26RPURRatanpur (2)  20:07+3:0120:08+3:011m--1183.05846mERRatanpur Railway Station, Bihar
27BUPBariarpur (3)  20:13+3:2520:14+3:301m--1187.81142mERMunger, Bihar
28KPRDKalyanpur Road (3)  20:21+3:3020:22+3:301m--1189.11040mERMunger, Bihar
29GNNAGangani (2)  20:29+3:2920:30+3:291m--1190.313338mERGangania, Bihar
30SGGSultanGanj (3)  20:37+3:2920:40+3:313m--1205.85042mERSultanganj, Bihar
31AKNAkbarnagar (3)  20:52+3:3020:53+3:311m--1215.84439mERTilakpur, Bihar
32NATNathnagar (2)  21:01+3:3321:02+3:341m--1226.04048mERBhagalpur, Bihar
33BGPBhagalpur Junction (6)X  21:09+2:0521:19+1:5210m--1230.75049mERBhagalpur, Bihar
34SBOSabaur (3)  21:28+2:5321:29+3:001m--1238.24442mERSabour, Bihar
35LMMLailakh Mamalkha (2)  21:38+3:0121:39+3:061m--1244.95836mERLailakh Mamlkha, Bihar
36GGAGhoga (2)  21:45+3:1021:47+3:162m--1250.76942mERGhoga, Bihar
37EKCEkchari (1)  21:52+3:1921:53+3:191m11256.45237mERNational Highway 80, Bihar
38CLGKahalgaon (2)  21:58+3:2322:00+3:522m11260.84944mERBhagalpur, Bihar
39SVRPShivanarayanpur (2)X  22:14+4:0022:38+4:0124m--1272.24847mERShivanarayanpur, Bihar
40PPTPirpainti (2)  22:49+4:0322:51+4:282m--1281.15653mERBhagalpur, Bihar
41MZCMirza Cheuki (3)X  23:00+4:3023:06+4:336m31289.62638mERBihar, Bihar
42SBGSahibganj Junction (3)X  23:41+3:5823:59+4:1318m11304.75438mERSahibganj, Jharkhand
43SLJSakrigali Junction (3)X  00:08+4:4200:09+4:501m--2312.75045mERSakrigali, Jharkhand
44MJPMaharajpur (2)  00:16+4:5400:17+5:021m--2318.67134mERMoharajpur, Jharkhand
45TLJTaljhari  00:27+5:1000:28+5:151m--2330.56538mERTaljhari, Jharkhand
46KXEKalian Chak  00:33+5:1900:34+5:211m--2335.98145mERKalian Chak, Jharkhand
47TPHTinpahar Junction (3)  00:39+5:2200:42+5:223m22342.65745mERBamangawan, Jharkhand
48BKLEBakudi (3)  00:51+5:2700:52+5:291m--2351.22665mERBakudi, Jharkhand
49BHWBarharwa Junction (3)X  01:10+5:2301:20+5:2610m22359.14436mERBarharwa, Jharkhand
50GMANGumani (3)X  01:30+5:2801:31+5:281m--2366.56731mERGumani, Jharkhand
51KLPKotalpukur (3)  01:37+5:3601:39+5:362m--2373.13840mERKotalpukur, Jharkhand
52TBBTilbhita (3)XO  01:51+5:3301:55+5:314m--2380.71731mERTilbhita, Jharkhand
53PKRPakur (2)X  02:10+4:3802:11+4:391m22384.94237mERDist:- Pakur, Jharkhand
54RJGRajgram (3)  02:26+5:3202:27+5:371m22395.57032mERRajgram, West Bengal
55MRRMurarai (3)X  02:37+5:4202:38+5:491m--2407.17036mERMurarai, West Bengal
56NHTNalhati Junction (4)X  02:52+6:0702:54+6:102m22423.42948mERNalhati, West Bengal
57RPHRampurhat (3)  03:23+4:5903:43+4:5420m--2437.56741mERDIST - Birbhum, West Bengal
58SNTSainthia Junction (4)  04:08+6:0704:13+6:065m42465.54758mERDist - Birbhum, West Bengal
59AMPAhmadpur Junction (3)O  04:30+6:4004:35+6:365m--2478.72846mERDist - Birbhum, West Bengal
60PNEPrantik (3)  05:08+5:1605:09+5:161m--2494.05148mERPrantik, West Bengal
61BHPBolpur Shantiniketan (3)  05:14+5:5705:19+5:565m--2498.26059mERBolpur, West Bengal
62BDHBhedia (2)  05:27+5:4805:28+5:501m--2506.25541mERDist - Bardhaman, West Bengal
63GKHGuskara (2)X  05:40+5:1805:41+5:181m12517.16041mERDist - Bardhaman, West Bengal
64BPSBanpas (3)  05:51+5:1905:52+5:201m--2527.21146mERDist - Bardhaman, West Bengal
65KANKhana Junction (5)X  06:45+4:5106:46+4:531m--2536.95642mERDist - Bardhaman, West Bengal
66BWNBarddhaman Junction (8)XO  07:00+5:1907:20+5:1720m--2550.05034mERDist - Barddhaman, West Bengal
67MYMMemari (4)  07:50+4:3908:00+4:3110m--2575.02225mERMemari, West Bengal
68MUGMagra (3)  09:38+3:3509:43+3:475m--2610.4715mERMagra, West Bengal
69BDCBandel Junction (7)  10:44+4:1510:50+4:146m--2617.23214mERdist - HOOGHLY, West Bengal
70CNSChuchura (3)  10:57+6:2510:58+6:251m--2621.03615mERDist - HOOGHLY - 712102, West Bengal
71CGRChandan Nagar (3)  11:03+2:5211:05+2:562m--2624.05316mERDist -HOOGHLY - 712136, West Bengal
72SHESeoraphuli Junction (6)  11:17+3:0311:19+3:042m--2634.63013mERBaidyabati, West Bengal
73SRPSerampore (4)X  11:24+2:5811:28+2:574m--2637.12811mERdist - hooghly, West Bengal
74HWH•Kolkata Howrah Junction (23)•  12:10+4:16-12656.8-10mERHowrah 711101, West Bengal
Scroll to Top
Scroll to Bottom